Aérodrome :
LOGIN :

S'inscrire | Disclaimer

   EN    FR    IT 

 










Légende :    VFR   VFR Marginal   IFR   IFR Intensif   IFR Très Intensif
Visi : 
Plafond : 
>= 8 km
>= 3000ft
5 à 8 km
1000 à 3000 ft
1500m à 5 km
500 à 1000 ft
800 à 1500m
200 à 500 ft
< 800m
< 200 ft
Symboles :   Orages  Brouillard  Fortes neiges  Fortes précipitations  Vent > 20 kt
SIGMETs :   Divers  Orages  Givrage  Turbulence  Onde Orograph.  Cendres Volcan.







- Altitude de l'aérodrome : 16 ft
- Code IATA : SDR


LEXJ - Santander Cantabria

DERNIER METAR :
  • 220030Z AUTO VRB01KT CAVOK 11/10 Q1009

METARs EXPIRÉS :
  • 220000Z AUTO 00000KT 9000 NCD 11/10 Q1010
  • 212330Z AUTO VRB02KT 9000 NCD 12/10 Q1010
  • 212300Z AUTO 21004KT 9000 NSC 13/11 Q1010
  • 212230Z AUTO 22001KT 8000 NSC 13/11 Q1011
  • 212200Z AUTO 00000KT 9000 NSC 14/11 Q1011
  • 212130Z AUTO VRB01KT 8000 NSC 14/11 Q1012

TAF TAF LEXJ
Valide du 21 à 21h jusqu'au 22 à 21h UTC


212000Z 2121/2221 VRB03KT 9999 SCT040 TX20/2215Z TN09/2206Z
PROB40
TEMPO 2200/2208 3000 BR
BECMG 2208/2212 06010KT
Pas de NOTAMs connus pour ce terrain.
2 SIGMETs publiés pour la FIR Madrid (LECM) :
 
Turbulence forte
LECM SIGMET 5 VALID 220000/220400 LEVA
LECM MADRID FIR/UIR SEV TURB FCST WI N4454 W00735 - N4442 W00555 - N4151 W00547 - N4159 W00805 - N4454 W00735 FL240/310 STNR NC=
Turbulence forte
LECM SIGMET 4 VALID 220000/220400 LEVA
LECM MADRID FIR/UIR SEV TURB FCST W OF LINE N3553 W00521 - N4152 W00547 FL230/310 MOV NE NC=



MET'MAP, la Météo Aéronautique d'un coup d'oeil ! - Copyright ORBIFLY Décembre 2007 - Disclaimer

ORBIFLY MET'MAP TEAM :

Programmation & Développement : Alexandra Zaïnal
Conception & Développement : Baudouin d'Aumeries
Co-Programmation & Développement : Marc-Olivier Méhu
Soutien technique & logistique : Manuel Goepfert

Contact : metmap@orbifly.com




SOURCES & CREDITS :

   NOAA